Terminal Aerodrome Forecast
Issued by NWS Raleigh/Durham, NC

Home | Current Version | Previous Version | Text Only | Print | Product List | Glossary On
Versions: 1 2 3 4 5 6 7 8 9 10 11 12 13 14 15 16
000
FTUS42 KRAH 200527
TAFFAY
TAF
KFAY 200527Z 2006/2106 24003KT P6SM SKC
     FM201800 27006KT P6SM SCT040
     FM202200 26004KT P6SM VCSH BKN040
     FM210300 24003KT P6SM SCT040=

USA.gov is the U.S. government's official web portal to all federal, state and local government web resources and services.